createdAt,value
2022-08-27T00:00:55.632Z,101846.41
2022-08-27T00:03:41.016Z,101846.09
2022-08-27T00:06:27.360Z,101852.38
2022-08-27T00:09:12.729Z,101851.00
2022-08-27T00:11:59.096Z,101846.56
2022-08-27T00:14:44.702Z,101847.19
2022-08-27T00:17:29.926Z,101849.63
2022-08-27T00:20:18.696Z,101838.03
2022-08-27T00:23:04.313Z,101844.00
2022-08-27T00:25:49.728Z,101842.94
2022-08-27T00:28:35.665Z,101843.00
2022-08-27T00:31:23.657Z,101845.72
2022-08-27T00:34:13.329Z,101851.16
2022-08-27T00:36:58.955Z,101854.88
2022-08-27T00:39:44.410Z,101847.69
2022-08-27T00:42:31.041Z,101853.06
2022-08-27T00:45:23.093Z,101842.41
2022-08-27T00:48:12.807Z,101844.69
2022-08-27T00:50:58.383Z,101842.31
2022-08-27T00:53:44.481Z,101848.44
2022-08-27T00:56:37.653Z,101846.47
2022-08-27T00:59:25.896Z,101851.44
2022-08-27T01:02:21.144Z,101848.84
2022-08-27T01:05:10.949Z,101849.22
2022-08-27T01:08:02.395Z,101856.69
2022-08-27T01:10:49.674Z,101848.00
2022-08-27T01:13:59.129Z,101847.91
2022-08-27T01:16:46.686Z,101846.97
2022-08-27T01:19:43.899Z,101844.34
2022-08-27T01:22:41.758Z,101843.75
2022-08-27T01:25:28.458Z,101842.28
2022-08-27T01:28:15.085Z,101842.66
2022-08-27T01:31:01.217Z,101845.50
2022-08-27T01:34:03.419Z,101840.06
2022-08-27T01:36:48.997Z,101842.16
2022-08-27T01:39:36.665Z,101832.13
2022-08-27T01:42:33.541Z,101833.59
2022-08-27T01:45:24.701Z,101835.84
2022-08-27T01:48:10.301Z,101839.22
2022-08-27T01:50:56.211Z,101833.84
2022-08-27T01:53:43.010Z,101832.16
2022-08-27T01:56:28.444Z,101835.28
2022-08-27T01:59:14.536Z,101843.03
2022-08-27T02:02:02.502Z,101840.56
2022-08-27T02:04:48.115Z,101834.16
2022-08-27T02:07:33.492Z,101828.41
2022-08-27T02:10:24.343Z,101822.31
2022-08-27T02:13:11.765Z,101826.72
2022-08-27T02:15:57.176Z,101830.75
2022-08-27T02:18:42.658Z,101828.81
2022-08-27T02:21:28.389Z,101827.63
2022-08-27T02:24:13.883Z,101836.03
2022-08-27T02:26:59.527Z,101828.31
2022-08-27T02:29:44.990Z,101825.69
2022-08-27T02:32:35.203Z,101822.63
2022-08-27T02:35:22.987Z,101820.75
2022-08-27T02:38:08.380Z,101825.94
2022-08-27T02:40:53.954Z,101824.16
2022-08-27T02:43:39.936Z,101822.25
2022-08-27T02:46:25.531Z,101821.47
2022-08-27T02:49:11.496Z,101831.50
2022-08-27T02:51:58.093Z,101833.34
2022-08-27T02:54:44.506Z,101841.22
2022-08-27T02:57:36.469Z,101834.03
2022-08-27T03:00:23.134Z,101834.91
2022-08-27T03:03:10.751Z,101830.28
2022-08-27T03:05:58.746Z,101828.59
2022-08-27T03:08:52.603Z,101838.41
2022-08-27T03:11:39.704Z,101835.56
2022-08-27T03:14:25.349Z,101833.41
2022-08-27T03:17:29.525Z,101829.88
2022-08-27T03:20:15.121Z,101837.75
2022-08-27T03:23:00.775Z,101835.66
2022-08-27T03:25:57.882Z,101839.56
2022-08-27T03:28:44.583Z,101835.84
2022-08-27T03:31:30.028Z,101828.03
2022-08-27T03:34:19.813Z,101829.22
2022-08-27T03:37:05.934Z,101830.84
2022-08-27T03:39:52.198Z,101834.78
2022-08-27T03:42:39.079Z,101842.00
2022-08-27T03:45:24.738Z,101837.06
2022-08-27T03:48:11.079Z,101839.28
2022-08-27T03:50:57.398Z,101839.09
2022-08-27T03:53:44.981Z,101828.53
2022-08-27T03:56:30.186Z,101825.66
2022-08-27T03:59:16.034Z,101825.53
2022-08-27T04:02:02.681Z,101831.75
2022-08-27T04:04:48.207Z,101835.31
2022-08-27T04:07:34.101Z,101839.78
2022-08-27T04:10:19.976Z,101842.78
2022-08-27T04:13:05.571Z,101843.56
2022-08-27T04:15:52.998Z,101840.94
2022-08-27T04:18:38.735Z,101839.28
2022-08-27T04:21:24.313Z,101830.75
2022-08-27T04:24:12.050Z,101827.34
2022-08-27T04:26:57.881Z,101829.97
2022-08-27T04:29:43.404Z,101834.53
2022-08-27T04:32:29.755Z,101825.94
2022-08-27T04:35:15.644Z,101818.97
2022-08-27T04:38:01.086Z,101821.69
2022-08-27T04:41:04.929Z,101822.75
2022-08-27T04:43:53.497Z,101819.63
2022-08-27T04:46:40.732Z,101815.47
2022-08-27T04:49:29.880Z,101823.22
2022-08-27T04:52:17.589Z,101827.69
2022-08-27T04:55:03.446Z,101818.19
2022-08-27T04:57:48.772Z,101816.91
2022-08-27T05:00:34.091Z,101808.34
2022-08-27T05:03:26.257Z,101818.84
2022-08-27T05:06:13.263Z,101813.75
2022-08-27T05:08:59.245Z,101821.69
2022-08-27T05:11:45.494Z,101814.75
2022-08-27T05:14:32.781Z,101811.25
2022-08-27T05:17:18.549Z,101805.25
2022-08-27T05:20:05.309Z,101803.50
2022-08-27T05:22:51.170Z,101806.06
2022-08-27T05:25:42.065Z,101809.53
2022-08-27T05:28:29.213Z,101816.56
2022-08-27T05:31:15.976Z,101818.50
2022-08-27T05:34:02.408Z,101812.53
2022-08-27T05:36:55.891Z,101826.59
2022-08-27T05:39:41.307Z,101826.84
2022-08-27T05:42:26.719Z,101832.22
2022-08-27T05:45:14.953Z,101833.22
2022-08-27T05:48:00.210Z,101834.25
2022-08-27T05:50:45.801Z,101827.44
2022-08-27T05:53:31.175Z,101831.81
2022-08-27T05:56:22.418Z,101834.41
2022-08-27T05:59:26.277Z,101837.03
2022-08-27T06:02:12.549Z,101841.41
2022-08-27T06:04:58.238Z,101834.44
2022-08-27T06:07:44.237Z,101830.19
2022-08-27T06:10:29.869Z,101830.22
2022-08-27T06:13:15.489Z,101830.31
2022-08-27T06:16:06.798Z,101834.72
2022-08-27T06:18:53.182Z,101839.19
2022-08-27T06:21:40.904Z,101839.31
2022-08-27T06:24:26.310Z,101842.06
2022-08-27T06:27:15.115Z,101835.25
2022-08-27T06:30:00.499Z,101830.16
2022-08-27T06:32:45.855Z,101829.44
2022-08-27T06:35:34.047Z,101834.81
2022-08-27T06:38:19.652Z,101835.88
2022-08-27T06:41:08.491Z,101830.75
2022-08-27T06:44:08.808Z,101830.94
2022-08-27T06:46:54.364Z,101830.22
2022-08-27T06:49:41.501Z,101842.56
2022-08-27T06:52:29.476Z,101843.56
2022-08-27T06:55:14.868Z,101841.09
2022-08-27T06:58:00.299Z,101842.03
2022-08-27T07:00:48.868Z,101842.06
2022-08-27T07:03:34.484Z,101848.25
2022-08-27T07:06:19.777Z,101845.69
2022-08-27T07:09:06.969Z,101840.50
2022-08-27T07:11:52.643Z,101846.66
2022-08-27T07:14:38.503Z,101843.22
2022-08-27T07:17:24.240Z,101844.94
2022-08-27T07:20:10.214Z,101846.72
2022-08-27T07:22:58.731Z,101852.00
2022-08-27T07:25:44.168Z,101853.78
2022-08-27T07:28:29.987Z,101855.59
2022-08-27T07:31:19.064Z,101860.00
2022-08-27T07:34:06.308Z,101862.69
2022-08-27T07:36:51.753Z,101856.72
2022-08-27T07:39:37.009Z,101858.53
2022-08-27T07:42:40.931Z,101871.78
2022-08-27T07:45:27.843Z,101871.88
2022-08-27T07:48:13.506Z,101860.63
2022-08-27T07:50:59.383Z,101860.75
2022-08-27T07:53:46.686Z,101859.13
2022-08-27T07:56:32.331Z,101862.69
2022-08-27T07:59:17.826Z,101854.03
2022-08-27T08:02:03.880Z,101852.38
2022-08-27T08:04:49.323Z,101853.34
2022-08-27T08:07:35.183Z,101847.28
2022-08-27T08:10:22.486Z,101852.56
2022-08-27T08:13:08.069Z,101862.25
2022-08-27T08:15:53.573Z,101860.56
2022-08-27T08:18:39.273Z,101864.13
2022-08-27T08:21:24.975Z,101853.69
2022-08-27T08:24:10.112Z,101863.34
2022-08-27T08:26:55.408Z,101861.66
2022-08-27T08:29:40.770Z,101859.94
2022-08-27T08:32:26.466Z,101863.47
2022-08-27T08:35:12.650Z,101860.00
2022-08-27T08:37:57.927Z,101868.75
2022-08-27T08:40:48.958Z,101860.94
2022-08-27T08:43:44.001Z,101860.13
2022-08-27T08:46:49.895Z,101860.16
2022-08-27T08:50:00.712Z,101853.19
2022-08-27T08:52:50.294Z,101858.44
2022-08-27T08:55:49.344Z,101857.59
2022-08-27T08:58:58.166Z,101861.13
2022-08-27T09:01:44.876Z,101862.88
2022-08-27T09:04:30.465Z,101862.03
2022-08-27T09:07:48.764Z,101852.41
2022-08-27T09:10:43.054Z,101860.31
2022-08-27T09:13:38.020Z,101863.81
2022-08-27T09:16:23.957Z,101859.44
2022-08-27T09:19:13.053Z,101852.44
2022-08-27T09:22:22.049Z,101852.44
2022-08-27T09:25:21.146Z,101853.25
2022-08-27T09:28:38.530Z,101855.91
2022-08-27T09:31:24.033Z,101866.38
2022-08-27T09:34:09.922Z,101858.47
2022-08-27T09:37:05.246Z,101864.56
2022-08-27T09:39:50.906Z,101860.13
2022-08-27T09:42:49.539Z,101853.97
2022-08-27T09:45:36.092Z,101850.44
2022-08-27T09:48:27.881Z,101844.28
2022-08-27T09:51:21.715Z,101847.75
2022-08-27T09:54:08.606Z,101842.44
2022-08-27T09:56:54.299Z,101845.94
2022-08-27T09:59:50.839Z,101844.97
2022-08-27T10:02:36.316Z,101840.56
2022-08-27T10:05:30.326Z,101839.66
2022-08-27T10:08:35.932Z,101834.31
2022-08-27T10:11:31.315Z,101836.88
2022-08-27T10:14:28.696Z,101837.72
2022-08-27T10:17:32.968Z,101841.16
2022-08-27T10:20:30.558Z,101841.06
2022-08-27T10:23:23.048Z,101833.88
2022-08-27T10:26:29.602Z,101836.41
2022-08-27T10:29:17.630Z,101824.00
2022-08-27T10:32:32.159Z,101830.00
2022-08-27T10:35:22.724Z,101832.47
2022-08-27T10:38:17.652Z,101833.91
2022-08-27T10:41:10.082Z,101825.72
2022-08-27T10:43:55.447Z,101830.72
2022-08-27T10:47:02.294Z,101835.81
2022-08-27T10:50:07.979Z,101826.91
2022-08-27T10:53:06.476Z,101824.88
2022-08-27T10:56:01.279Z,101823.97
2022-08-27T10:58:55.488Z,101822.97
2022-08-27T11:02:01.179Z,101820.22
2022-08-27T11:04:57.596Z,101821.09
2022-08-27T11:07:50.491Z,101821.00
2022-08-27T11:10:43.590Z,101823.53
2022-08-27T11:13:39.572Z,101822.59
2022-08-27T11:16:32.981Z,101826.09
2022-08-27T11:19:28.148Z,101816.56
2022-08-27T11:22:26.545Z,101814.91
2022-08-27T11:25:51.091Z,101827.34
2022-08-27T11:28:55.919Z,101823.00
2022-08-27T11:31:50.581Z,101822.25
2022-08-27T11:35:19.141Z,101824.06
2022-08-27T11:38:17.686Z,101819.81
2022-08-27T11:41:18.445Z,101820.72
2022-08-27T11:44:04.504Z,101813.59
2022-08-27T11:47:15.278Z,101820.63
2022-08-27T11:50:06.154Z,101820.53
2022-08-27T11:53:06.320Z,101815.03
2022-08-27T11:55:53.354Z,101818.41
2022-08-27T11:58:52.916Z,101812.84
2022-08-27T12:01:40.496Z,101815.28
2022-08-27T12:04:32.594Z,101815.78
2022-08-27T12:07:18.470Z,101811.13
2022-08-27T12:10:11.588Z,101805.31
2022-08-27T12:13:12.352Z,101807.25
2022-08-27T12:16:25.400Z,101803.75
2022-08-27T12:19:44.655Z,101819.38
2022-08-27T12:23:24.189Z,101816.34
2022-08-27T12:26:27.848Z,101824.75
2022-08-27T12:29:47.029Z,101820.13
2022-08-27T12:32:41.247Z,101822.72
2022-08-27T12:35:41.083Z,101823.50
2022-08-27T12:38:54.307Z,101823.00
2022-08-27T12:41:45.968Z,101820.38
2022-08-27T12:44:33.515Z,101822.31
2022-08-27T12:47:19.268Z,101811.25
2022-08-27T12:50:06.032Z,101819.63
2022-08-27T12:53:07.436Z,101811.56
2022-08-27T12:56:30.259Z,101819.47
2022-08-27T12:59:27.974Z,101809.34
2022-08-27T13:02:34.811Z,101814.06
2022-08-27T13:05:22.758Z,101815.03
2022-08-27T13:08:22.960Z,101818.16
2022-08-27T13:11:35.974Z,101807.13
2022-08-27T13:14:22.844Z,101805.84
2022-08-27T13:17:10.219Z,101804.53
2022-08-27T13:20:01.243Z,101802.19
2022-08-27T13:22:47.295Z,101804.72
2022-08-27T13:25:35.839Z,101804.41
2022-08-27T13:28:25.013Z,101794.25
2022-08-27T13:31:11.286Z,101796.13
2022-08-27T13:33:58.784Z,101792.56
2022-08-27T13:37:04.209Z,101798.78
2022-08-27T13:39:54.407Z,101796.78
2022-08-27T13:42:43.052Z,101802.97
2022-08-27T13:45:28.454Z,101797.53
2022-08-27T13:48:17.891Z,101787.00
2022-08-27T13:51:04.204Z,101792.94
2022-08-27T13:54:07.913Z,101796.13
2022-08-27T13:56:55.163Z,101793.72
2022-08-27T13:59:43.091Z,101800.09
2022-08-27T14:02:32.705Z,101792.53
2022-08-27T14:05:24.184Z,101797.06
2022-08-27T14:08:15.654Z,101797.44
2022-08-27T14:11:08.092Z,101802.66
2022-08-27T14:13:56.859Z,101800.09
2022-08-27T14:16:42.687Z,101803.03
2022-08-27T14:19:36.948Z,101804.06
2022-08-27T14:22:22.746Z,101799.41
2022-08-27T14:25:09.400Z,101803.69
2022-08-27T14:27:57.279Z,101808.34
2022-08-27T14:30:42.967Z,101816.66
2022-08-27T14:33:28.388Z,101809.19
2022-08-27T14:36:14.718Z,101806.09
2022-08-27T14:39:00.500Z,101802.38
2022-08-27T14:41:45.895Z,101797.81
2022-08-27T14:44:33.928Z,101803.34
2022-08-27T14:47:20.363Z,101791.75
2022-08-27T14:50:11.281Z,101796.34
2022-08-27T14:52:56.885Z,101792.16
2022-08-27T14:55:42.547Z,101790.34
2022-08-27T14:58:32.419Z,101792.69
2022-08-27T15:01:20.630Z,101796.09
2022-08-27T15:04:06.619Z,101795.00
2022-08-27T15:06:52.298Z,101791.41
2022-08-27T15:09:38.346Z,101786.41
2022-08-27T15:12:26.354Z,101796.97
2022-08-27T15:15:12.990Z,101796.50
2022-08-27T15:17:58.287Z,101799.38
2022-08-27T15:20:44.261Z,101796.91
2022-08-27T15:23:29.948Z,101794.47
2022-08-27T15:26:15.215Z,101799.34
2022-08-27T15:29:05.641Z,101793.88
2022-08-27T15:31:52.350Z,101790.81
2022-08-27T15:34:37.577Z,101801.94
2022-08-27T15:37:23.630Z,101798.69
2022-08-27T15:40:10.299Z,101799.56
2022-08-27T15:42:59.943Z,101795.59
2022-08-27T15:45:45.576Z,101789.81
2022-08-27T15:48:31.759Z,101792.63
2022-08-27T15:51:21.883Z,101789.34
2022-08-27T15:54:07.264Z,101790.00
2022-08-27T15:56:52.994Z,101801.75
2022-08-27T15:59:38.337Z,101797.78
2022-08-27T16:02:25.469Z,101803.22
2022-08-27T16:05:12.776Z,101800.69
2022-08-27T16:07:58.402Z,101791.22
2022-08-27T16:10:43.830Z,101798.53
2022-08-27T16:13:29.707Z,101796.50
2022-08-27T16:16:16.578Z,101800.81
2022-08-27T16:19:04.938Z,101798.78
2022-08-27T16:21:51.208Z,101794.25
2022-08-27T16:24:36.605Z,101790.81
2022-08-27T16:27:22.029Z,101788.50
2022-08-27T16:30:08.296Z,101785.69
2022-08-27T16:32:53.931Z,101789.44
2022-08-27T16:35:39.952Z,101790.03
2022-08-27T16:38:25.172Z,101798.56
2022-08-27T16:41:11.054Z,101789.38
2022-08-27T16:43:56.411Z,101790.78
2022-08-27T16:46:42.130Z,101789.78
2022-08-27T16:49:46.433Z,101792.09
2022-08-27T16:52:32.007Z,101783.28
2022-08-27T16:55:19.273Z,101784.38
2022-08-27T16:58:26.515Z,101787.38
2022-08-27T17:01:15.185Z,101794.09
2022-08-27T17:04:09.809Z,101784.06
2022-08-27T17:06:58.394Z,101790.91
2022-08-27T17:09:44.725Z,101788.72
2022-08-27T17:12:30.172Z,101774.91
2022-08-27T17:15:17.219Z,101781.88
2022-08-27T17:18:04.075Z,101782.63
2022-08-27T17:20:51.069Z,101785.06
2022-08-27T17:23:43.224Z,101778.56
2022-08-27T17:26:30.415Z,101777.44
2022-08-27T17:29:16.273Z,101781.97
2022-08-27T17:32:02.102Z,101777.44
2022-08-27T17:34:48.233Z,101779.53
2022-08-27T17:37:34.824Z,101773.91
2022-08-27T17:40:20.925Z,101774.94
2022-08-27T17:43:07.127Z,101779.38
2022-08-27T17:45:52.592Z,101783.38
2022-08-27T17:48:37.963Z,101782.06
2022-08-27T17:51:23.424Z,101785.13
2022-08-27T17:54:19.848Z,101783.19
2022-08-27T17:57:20.261Z,101775.22
2022-08-27T18:00:07.548Z,101775.41
2022-08-27T18:02:54.093Z,101782.53
2022-08-27T18:05:39.385Z,101781.56
2022-08-27T18:08:24.654Z,101779.91
2022-08-27T18:11:12.274Z,101782.53
2022-08-27T18:14:04.549Z,101775.53
2022-08-27T18:16:50.460Z,101786.16
2022-08-27T18:19:37.500Z,101795.63
2022-08-27T18:22:24.712Z,101787.63
2022-08-27T18:25:11.502Z,101784.31
2022-08-27T18:28:00.483Z,101794.19
2022-08-27T18:30:47.100Z,101791.41
2022-08-27T18:33:33.045Z,101787.81
2022-08-27T18:36:19.045Z,101790.00
2022-08-27T18:39:04.819Z,101786.94
2022-08-27T18:41:50.969Z,101791.75
2022-08-27T18:44:38.976Z,101788.66
2022-08-27T18:47:24.650Z,101790.81
2022-08-27T18:50:17.419Z,101791.03
2022-08-27T18:53:03.504Z,101787.81
2022-08-27T18:55:50.698Z,101788.94
2022-08-27T18:58:40.817Z,101793.59
2022-08-27T19:01:27.739Z,101793.84
2022-08-27T19:04:13.850Z,101798.38
2022-08-27T19:06:59.697Z,101795.03
2022-08-27T19:09:45.256Z,101799.59
2022-08-27T19:12:30.669Z,101788.38
2022-08-27T19:15:17.730Z,101794.69
2022-08-27T19:18:03.889Z,101792.19
2022-08-27T19:20:49.513Z,101789.66
2022-08-27T19:23:36.254Z,101789.75
2022-08-27T19:26:25.078Z,101791.59
2022-08-27T19:29:10.684Z,101803.06
2022-08-27T19:31:56.419Z,101803.97
2022-08-27T19:34:41.974Z,101804.06
2022-08-27T19:37:30.863Z,101807.63
2022-08-27T19:40:17.077Z,101813.78
2022-08-27T19:43:02.689Z,101816.47
2022-08-27T19:45:48.322Z,101810.38
2022-08-27T19:48:34.449Z,101812.13
2022-08-27T19:51:19.837Z,101811.25
2022-08-27T19:54:05.377Z,101818.28
2022-08-27T19:56:51.225Z,101820.03
2022-08-27T19:59:41.523Z,101824.41
2022-08-27T20:02:27.359Z,101824.44
2022-08-27T20:05:20.036Z,101820.91
2022-08-27T20:08:05.867Z,101828.75
2022-08-27T20:10:51.107Z,101833.16
2022-08-27T20:13:36.605Z,101836.63
2022-08-27T20:16:25.453Z,101839.22
2022-08-27T20:19:11.743Z,101837.47
2022-08-27T20:21:57.685Z,101841.84
2022-08-27T20:24:43.074Z,101841.78
2022-08-27T20:27:28.815Z,101838.31
2022-08-27T20:30:15.918Z,101840.88
2022-08-27T20:33:02.153Z,101844.34
2022-08-27T20:35:48.037Z,101853.94
2022-08-27T20:38:35.025Z,101853.00
2022-08-27T20:41:21.553Z,101852.13
2022-08-27T20:44:06.987Z,101853.81
2022-08-27T20:46:57.038Z,101857.28
2022-08-27T20:49:44.767Z,101852.91
2022-08-27T20:52:30.835Z,101857.25
2022-08-27T20:55:17.810Z,101853.78
2022-08-27T20:58:21.517Z,101855.50
2022-08-27T21:01:07.166Z,101857.28
2022-08-27T21:03:52.430Z,101849.41
2022-08-27T21:06:37.765Z,101851.19
2022-08-27T21:09:23.080Z,101845.94
2022-08-27T21:12:08.594Z,101852.94
2022-08-27T21:14:56.176Z,101852.06
2022-08-27T21:17:42.640Z,101854.69
2022-08-27T21:20:28.460Z,101854.75
2022-08-27T21:23:14.989Z,101862.63
2022-08-27T21:26:12.029Z,101860.00
2022-08-27T21:28:57.715Z,101862.63
2022-08-27T21:31:43.468Z,101859.16
2022-08-27T21:34:31.107Z,101859.16
2022-08-27T21:37:17.927Z,101856.53
2022-08-27T21:40:06.769Z,101860.94
2022-08-27T21:42:53.888Z,101860.94
2022-08-27T21:45:41.705Z,101856.56
2022-08-27T21:48:27.579Z,101856.56
2022-08-27T21:51:24.639Z,101851.31
2022-08-27T21:54:10.830Z,101852.19
2022-08-27T21:56:56.315Z,101859.19
2022-08-27T21:59:45.990Z,101864.41
2022-08-27T22:02:40.462Z,101860.03
2022-08-27T22:05:25.998Z,101868.78
2022-08-27T22:08:13.860Z,101867.88
2022-08-27T22:10:59.637Z,101869.63
2022-08-27T22:13:45.226Z,101868.72
2022-08-27T22:16:30.567Z,101876.59
2022-08-27T22:19:16.996Z,101871.31
2022-08-27T22:22:02.385Z,101875.72
2022-08-27T22:24:47.691Z,101878.34
2022-08-27T22:27:33.110Z,101875.72
2022-08-27T22:30:19.096Z,101869.53
2022-08-27T22:33:05.045Z,101875.63
2022-08-27T22:35:50.533Z,101877.38
2022-08-27T22:38:35.890Z,101874.72
2022-08-27T22:41:21.753Z,101879.06
2022-08-27T22:44:07.908Z,101881.66
2022-08-27T22:46:53.531Z,101880.75
2022-08-27T22:49:39.365Z,101875.50
2022-08-27T22:52:28.146Z,101878.09
2022-08-27T22:55:16.504Z,101871.06
2022-08-27T22:58:02.468Z,101873.69
2022-08-27T23:00:50.790Z,101876.25
2022-08-27T23:03:38.240Z,101871.84
2022-08-27T23:06:23.482Z,101863.06
2022-08-27T23:09:08.897Z,101871.78
2022-08-27T23:11:54.331Z,101882.22
2022-08-27T23:14:39.770Z,101869.94
2022-08-27T23:17:25.957Z,101878.72
2022-08-27T23:20:14.608Z,101881.22
2022-08-27T23:23:00.364Z,101875.91
2022-08-27T23:26:06.505Z,101879.25
2022-08-27T23:28:53.705Z,101880.13
2022-08-27T23:31:39.204Z,101887.81
2022-08-27T23:34:25.319Z,101883.31
2022-08-27T23:37:10.660Z,101890.22
2022-08-27T23:39:56.131Z,101890.09
2022-08-27T23:42:44.095Z,101882.09
2022-08-27T23:45:30.384Z,101889.84
2022-08-27T23:48:16.024Z,101893.19
2022-08-27T23:51:01.371Z,101892.22
2022-08-27T23:53:46.908Z,101893.84
2022-08-27T23:56:33.594Z,101889.41
2022-08-27T23:59:19.208Z,101882.47
